createdAt,value
2023-03-20T00:00:41.856Z,92.38
2023-03-20T00:01:41.867Z,92.38
2023-03-20T00:02:41.858Z,92.49
2023-03-20T00:03:41.896Z,92.59
2023-03-20T00:04:41.845Z,92.59
2023-03-20T00:05:41.832Z,92.79
2023-03-20T00:06:41.786Z,92.90
2023-03-20T00:07:41.809Z,92.94
2023-03-20T00:08:41.795Z,93.15
2023-03-20T00:09:41.775Z,93.45
2023-03-20T00:10:41.760Z,93.30
2023-03-20T00:11:41.762Z,93.30
2023-03-20T00:12:41.730Z,93.35
2023-03-20T00:13:41.777Z,93.15
2023-03-20T00:14:41.701Z,93.25
2023-03-20T00:15:41.755Z,93.04
2023-03-20T00:16:41.675Z,93.15
2023-03-20T00:17:41.690Z,93.25
2023-03-20T00:18:41.656Z,93.25
2023-03-20T00:19:41.699Z,93.04
2023-03-20T00:20:41.651Z,92.94
2023-03-20T00:21:41.673Z,92.74
2023-03-20T00:22:41.610Z,92.53
2023-03-20T00:23:41.640Z,92.83
2023-03-20T00:24:41.670Z,92.53
2023-03-20T00:25:41.610Z,92.53
2023-03-20T00:26:41.598Z,92.53
2023-03-20T00:27:41.586Z,92.32
2023-03-20T00:28:41.549Z,92.22
2023-03-20T00:29:41.561Z,92.43
2023-03-20T00:30:41.551Z,92.22
2023-03-20T00:31:41.606Z,92.22
2023-03-20T00:32:41.553Z,92.32
2023-03-20T00:33:41.522Z,92.43
2023-03-20T00:34:41.507Z,92.43
2023-03-20T00:35:41.577Z,92.43
2023-03-20T00:36:41.471Z,92.43
2023-03-20T00:37:41.471Z,92.22
2023-03-20T00:38:41.441Z,92.08
2023-03-20T00:39:41.459Z,92.12
2023-03-20T00:40:41.423Z,92.22
2023-03-20T00:41:41.580Z,92.63
2023-03-20T00:42:41.395Z,92.38
2023-03-20T00:43:41.416Z,92.49
2023-03-20T00:44:42.482Z,92.53
2023-03-20T00:45:41.398Z,92.74
2023-03-20T00:46:41.428Z,92.74
2023-03-20T00:47:41.390Z,92.83
2023-03-20T00:48:41.351Z,92.94
2023-03-20T00:49:41.358Z,92.94
2023-03-20T00:50:41.346Z,93.15
2023-03-20T00:51:41.332Z,93.25
2023-03-20T00:52:41.313Z,93.25
2023-03-20T00:53:41.313Z,93.35
2023-03-20T00:54:41.300Z,93.25
2023-03-20T00:55:41.297Z,93.35
2023-03-20T00:56:41.256Z,93.25
2023-03-20T00:57:41.282Z,93.35
2023-03-20T00:58:41.236Z,93.55
2023-03-20T00:59:41.238Z,93.45
2023-03-20T01:00:41.267Z,93.35
2023-03-20T01:01:41.268Z,93.66
2023-03-20T01:02:41.196Z,93.55
2023-03-20T01:03:41.233Z,93.55
2023-03-20T01:04:41.176Z,93.55
2023-03-20T01:05:41.191Z,93.45
2023-03-20T01:06:41.182Z,93.55
2023-03-20T01:07:41.161Z,93.45
2023-03-20T01:08:41.154Z,93.55
2023-03-20T01:09:41.146Z,93.25
2023-03-20T01:10:41.102Z,93.45
2023-03-20T01:11:41.125Z,93.45
2023-03-20T01:12:41.077Z,93.35
2023-03-20T01:13:41.092Z,93.55
2023-03-20T01:14:41.095Z,93.66
2023-03-20T01:15:41.054Z,93.86
2023-03-20T01:16:41.166Z,94.07
2023-03-20T01:17:41.015Z,94.27
2023-03-20T01:18:41.040Z,95.03
2023-03-20T01:19:41.011Z,95.14
2023-03-20T01:20:41.031Z,95.95
2023-03-20T01:21:40.987Z,96.37
2023-03-20T01:22:41.001Z,96.92
2023-03-20T01:23:40.975Z,97.64
2023-03-20T01:24:40.972Z,97.54
2023-03-20T01:25:40.958Z,97.85
2023-03-20T01:26:40.968Z,98.46
2023-03-20T01:27:40.929Z,98.87
2023-03-20T01:28:40.933Z,98.16
2023-03-20T01:29:40.916Z,98.25
2023-03-20T01:30:40.932Z,97.95
2023-03-20T01:31:40.910Z,97.64
2023-03-20T01:32:40.952Z,98.16
2023-03-20T01:33:40.858Z,97.85
2023-03-20T01:34:40.865Z,97.85
2023-03-20T01:35:40.896Z,97.74
2023-03-20T01:36:40.862Z,98.16
2023-03-20T01:37:40.806Z,97.95
2023-03-20T01:38:40.818Z,97.54
2023-03-20T01:39:40.805Z,97.74
2023-03-20T01:40:40.796Z,97.89
2023-03-20T01:41:40.786Z,98.16
2023-03-20T01:42:40.799Z,98.67
2023-03-20T01:43:40.738Z,98.16
2023-03-20T01:44:40.757Z,98.05
2023-03-20T01:45:40.748Z,97.58
2023-03-20T01:46:40.735Z,98.10
2023-03-20T01:47:40.718Z,98.30
2023-03-20T01:48:40.723Z,98.51
2023-03-20T01:49:40.681Z,98.51
2023-03-20T01:50:40.691Z,98.71
2023-03-20T01:51:40.662Z,98.41
2023-03-20T01:52:40.717Z,98.41
2023-03-20T01:53:40.637Z,98.51
2023-03-20T01:54:40.646Z,98.51
2023-03-20T01:55:40.629Z,98.77
2023-03-20T01:56:40.609Z,98.41
2023-03-20T01:57:40.646Z,97.99
2023-03-20T01:58:40.621Z,96.45
2023-03-20T01:59:40.568Z,96.35
2023-03-20T02:00:40.588Z,96.25
2023-03-20T02:01:40.576Z,95.74
2023-03-20T02:02:40.585Z,95.64
2023-03-20T02:03:40.560Z,95.43
2023-03-20T02:04:40.563Z,95.74
2023-03-20T02:05:40.534Z,95.53
2023-03-20T02:06:40.529Z,95.43
2023-03-20T02:07:40.489Z,95.32
2023-03-20T02:08:40.514Z,95.32
2023-03-20T02:09:40.514Z,95.37
2023-03-20T02:10:40.503Z,95.32
2023-03-20T02:11:40.445Z,95.02
2023-03-20T02:12:40.460Z,95.02
2023-03-20T02:13:40.458Z,95.32
2023-03-20T02:14:40.477Z,94.92
2023-03-20T02:15:40.406Z,95.12
2023-03-20T02:16:40.469Z,94.14
2023-03-20T02:17:40.384Z,94.20
2023-03-20T02:18:40.392Z,94.34
2023-03-20T02:19:40.361Z,94.14
2023-03-20T02:20:40.401Z,92.70
2023-03-20T02:21:40.360Z,93.12
2023-03-20T02:22:40.354Z,93.01
2023-03-20T02:23:40.332Z,93.12
2023-03-20T02:24:40.369Z,92.80
2023-03-20T02:25:40.320Z,93.32
2023-03-20T02:26:40.310Z,92.80
2023-03-20T02:27:40.305Z,92.91
2023-03-20T02:28:40.305Z,92.80
2023-03-20T02:29:40.255Z,92.29
2023-03-20T02:30:40.361Z,92.70
2023-03-20T02:31:40.256Z,93.32
2023-03-20T02:32:40.263Z,93.52
2023-03-20T02:33:40.214Z,93.57
2023-03-20T02:34:40.228Z,93.73
2023-03-20T02:35:40.244Z,93.77
2023-03-20T02:36:40.213Z,94.14
2023-03-20T02:37:40.176Z,93.93
2023-03-20T02:38:40.176Z,93.67
2023-03-20T02:39:40.145Z,93.98
2023-03-20T02:40:40.159Z,93.77
2023-03-20T02:41:40.187Z,93.73
2023-03-20T02:42:40.143Z,94.08
2023-03-20T02:43:40.119Z,94.08
2023-03-20T02:44:40.115Z,94.18
2023-03-20T02:45:40.077Z,94.08
2023-03-20T02:46:40.097Z,93.87
2023-03-20T02:47:40.082Z,94.08
2023-03-20T02:48:40.097Z,93.98
2023-03-20T02:49:40.049Z,93.46
2023-03-20T02:50:40.061Z,93.46
2023-03-20T02:51:40.030Z,93.67
2023-03-20T02:52:40.028Z,92.74
2023-03-20T02:53:40.016Z,92.33
2023-03-20T02:54:40.017Z,92.23
2023-03-20T02:55:39.990Z,92.23
2023-03-20T02:56:39.997Z,92.13
2023-03-20T02:57:39.956Z,91.72
2023-03-20T02:58:39.986Z,91.93
2023-03-20T02:59:39.960Z,91.93
2023-03-20T03:00:39.951Z,91.82
2023-03-20T03:01:39.917Z,91.61
2023-03-20T03:02:39.954Z,91.61
2023-03-20T03:03:39.911Z,91.51
2023-03-20T03:04:39.910Z,91.51
2023-03-20T03:05:39.881Z,91.61
2023-03-20T03:06:39.885Z,91.51
2023-03-20T03:07:39.847Z,91.41
2023-03-20T03:08:39.901Z,91.10
2023-03-20T03:09:39.854Z,91.10
2023-03-20T03:10:39.858Z,91.20
2023-03-20T03:11:39.811Z,91.10
2023-03-20T03:12:39.824Z,91.20
2023-03-20T03:13:39.799Z,91.41
2023-03-20T03:14:39.798Z,91.20
2023-03-20T03:15:39.831Z,91.20
2023-03-20T03:16:39.778Z,91.31
2023-03-20T03:17:39.762Z,91.61
2023-03-20T03:18:39.756Z,91.41
2023-03-20T03:19:39.726Z,91.31
2023-03-20T03:20:39.767Z,91.41
2023-03-20T03:21:39.697Z,91.00
2023-03-20T03:22:39.727Z,91.20
2023-03-20T03:23:39.681Z,91.10
2023-03-20T03:24:41.711Z,91.31
2023-03-20T03:25:39.668Z,91.51
2023-03-20T03:26:39.676Z,91.41
2023-03-20T03:27:39.634Z,91.51
2023-03-20T03:28:39.647Z,91.72
2023-03-20T03:29:39.627Z,91.31
2023-03-20T03:30:39.649Z,91.55
2023-03-20T03:31:39.682Z,91.51
2023-03-20T03:32:39.627Z,91.10
2023-03-20T03:33:39.578Z,91.25
2023-03-20T03:34:39.600Z,91.14
2023-03-20T03:35:39.703Z,91.35
2023-03-20T03:36:39.628Z,91.25
2023-03-20T03:37:39.547Z,91.35
2023-03-20T03:38:39.540Z,91.35
2023-03-20T03:39:39.516Z,91.45
2023-03-20T03:40:39.521Z,91.45
2023-03-20T03:41:39.493Z,91.25
2023-03-20T03:42:39.519Z,91.45
2023-03-20T03:43:39.486Z,91.25
2023-03-20T03:44:39.472Z,91.25
2023-03-20T03:45:39.460Z,91.25
2023-03-20T03:46:39.477Z,91.25
2023-03-20T03:47:39.426Z,91.20
2023-03-20T03:48:39.461Z,91.10
2023-03-20T03:49:39.396Z,90.89
2023-03-20T03:50:39.416Z,90.89
2023-03-20T03:51:39.375Z,91.00
2023-03-20T03:52:39.422Z,90.80
2023-03-20T03:53:39.424Z,91.00
2023-03-20T03:54:39.369Z,91.20
2023-03-20T03:55:39.731Z,91.41
2023-03-20T03:56:39.359Z,90.89
2023-03-20T03:57:39.321Z,90.59
2023-03-20T03:58:39.349Z,91.00
2023-03-20T03:59:39.342Z,90.89
2023-03-20T04:00:39.321Z,90.69
2023-03-20T04:01:39.345Z,90.63
2023-03-20T04:02:39.298Z,90.94
2023-03-20T04:03:39.256Z,91.00
2023-03-20T04:04:39.346Z,90.73
2023-03-20T04:05:39.251Z,91.31
2023-03-20T04:06:39.274Z,90.83
2023-03-20T04:07:39.211Z,90.73
2023-03-20T04:08:39.245Z,90.94
2023-03-20T04:09:39.212Z,90.42
2023-03-20T04:10:39.225Z,90.22
2023-03-20T04:11:39.171Z,90.83
2023-03-20T04:12:39.223Z,90.12
2023-03-20T04:13:39.154Z,90.12
2023-03-20T04:14:39.159Z,90.01
2023-03-20T04:15:39.159Z,89.91
2023-03-20T04:16:39.167Z,89.91
2023-03-20T04:17:39.107Z,90.32
2023-03-20T04:18:39.142Z,90.42
2023-03-20T04:19:39.096Z,90.53
2023-03-20T04:20:39.107Z,90.22
2023-03-20T04:21:39.081Z,90.22
2023-03-20T04:22:39.103Z,90.63
2023-03-20T04:23:39.088Z,90.63
2023-03-20T04:24:39.057Z,91.25
2023-03-20T04:25:39.037Z,91.04
2023-03-20T04:26:39.072Z,91.45
2023-03-20T04:27:39.000Z,91.25
2023-03-20T04:28:39.019Z,91.35
2023-03-20T04:29:39.397Z,91.25
2023-03-20T04:30:39.025Z,91.45
2023-03-20T04:31:39.039Z,91.55
2023-03-20T04:32:39.009Z,91.55
2023-03-20T04:33:38.941Z,91.86
2023-03-20T04:34:38.992Z,91.86
2023-03-20T04:35:39.409Z,91.70
2023-03-20T04:36:38.941Z,91.04
2023-03-20T04:37:38.933Z,90.67
2023-03-20T04:38:38.916Z,90.47
2023-03-20T04:39:38.885Z,90.16
2023-03-20T04:40:38.896Z,90.57
2023-03-20T04:41:38.854Z,90.36
2023-03-20T04:42:38.866Z,90.36
2023-03-20T04:43:38.855Z,90.26
2023-03-20T04:44:38.861Z,90.36
2023-03-20T04:45:39.243Z,90.78
2023-03-20T04:46:38.822Z,90.36
2023-03-20T04:47:38.789Z,89.85
2023-03-20T04:48:38.843Z,90.16
2023-03-20T04:49:38.781Z,89.95
2023-03-20T04:50:38.778Z,90.06
2023-03-20T04:51:38.744Z,90.16
2023-03-20T04:52:38.758Z,89.95
2023-03-20T04:53:38.724Z,89.13
2023-03-20T04:54:38.875Z,89.23
2023-03-20T04:55:38.725Z,88.62
2023-03-20T04:56:38.722Z,88.82
2023-03-20T04:57:38.682Z,88.72
2023-03-20T04:58:38.699Z,88.51
2023-03-20T04:59:38.906Z,88.20
2023-03-20T05:00:38.688Z,88.20
2023-03-20T05:01:38.654Z,88.10
2023-03-20T05:02:38.658Z,88.20
2023-03-20T05:03:38.620Z,88.41
2023-03-20T05:04:38.639Z,88.10
2023-03-20T05:05:38.853Z,88.00
2023-03-20T05:06:38.620Z,87.90
2023-03-20T05:07:38.592Z,87.28
2023-03-20T05:08:38.597Z,87.59
2023-03-20T05:09:38.569Z,87.07
2023-03-20T05:10:38.837Z,87.07
2023-03-20T05:11:38.529Z,87.18
2023-03-20T05:12:38.560Z,86.35
2023-03-20T05:13:38.522Z,86.80
2023-03-20T05:14:38.519Z,87.01
2023-03-20T05:15:38.510Z,87.32
2023-03-20T05:16:38.540Z,87.63
2023-03-20T05:17:38.470Z,86.70
2023-03-20T05:18:38.496Z,86.80
2023-03-20T05:19:38.451Z,86.80
2023-03-20T05:20:38.464Z,86.80
2023-03-20T05:21:38.468Z,87.01
2023-03-20T05:22:38.447Z,87.42
2023-03-20T05:23:38.405Z,87.01
2023-03-20T05:24:38.421Z,87.12
2023-03-20T05:25:38.388Z,86.91
2023-03-20T05:26:38.394Z,87.42
2023-03-20T05:27:39.231Z,87.22
2023-03-20T05:28:38.379Z,87.84
2023-03-20T05:29:38.338Z,87.32
2023-03-20T05:30:38.415Z,87.32
2023-03-20T05:31:38.336Z,87.63
2023-03-20T05:32:38.355Z,87.84
2023-03-20T05:33:38.398Z,87.63
2023-03-20T05:34:38.286Z,87.52
2023-03-20T05:35:38.789Z,88.14
2023-03-20T05:36:38.313Z,87.94
2023-03-20T05:37:38.275Z,88.14
2023-03-20T05:38:38.259Z,87.63
2023-03-20T05:39:38.260Z,87.63
2023-03-20T05:40:38.219Z,87.94
2023-03-20T05:41:38.241Z,88.04
2023-03-20T05:42:38.207Z,87.63
2023-03-20T05:43:38.232Z,87.77
2023-03-20T05:44:38.184Z,87.84
2023-03-20T05:45:38.187Z,87.98
2023-03-20T05:46:38.181Z,87.77
2023-03-20T05:47:38.169Z,87.87
2023-03-20T05:48:38.135Z,87.98
2023-03-20T05:49:38.159Z,87.98
2023-03-20T05:50:38.113Z,87.87
2023-03-20T05:51:38.128Z,87.77
2023-03-20T05:52:38.096Z,87.87
2023-03-20T05:53:38.115Z,87.87
2023-03-20T05:54:38.093Z,87.77
2023-03-20T05:55:38.455Z,88.39
2023-03-20T05:56:38.065Z,87.98
2023-03-20T05:57:38.066Z,87.87
2023-03-20T05:58:38.037Z,88.18
2023-03-20T05:59:38.060Z,88.18
2023-03-20T06:00:38.024Z,87.98
2023-03-20T06:01:38.023Z,87.87
2023-03-20T06:02:38.188Z,87.98
2023-03-20T06:03:38.093Z,87.98
2023-03-20T06:04:37.967Z,88.39
2023-03-20T06:05:38.310Z,88.18
2023-03-20T06:06:38.138Z,88.39
2023-03-20T06:07:37.963Z,87.87
2023-03-20T06:08:37.941Z,87.98
2023-03-20T06:09:37.934Z,88.39
2023-03-20T06:10:37.907Z,87.87
2023-03-20T06:11:37.927Z,87.98
2023-03-20T06:12:37.884Z,87.98
2023-03-20T06:13:37.928Z,88.08
2023-03-20T06:14:37.861Z,87.98
2023-03-20T06:15:38.438Z,87.57
2023-03-20T06:16:37.866Z,87.77
2023-03-20T06:17:37.860Z,87.46
2023-03-20T06:18:37.820Z,87.26
2023-03-20T06:19:37.829Z,87.77
2023-03-20T06:20:37.798Z,87.77
2023-03-20T06:21:37.815Z,87.67
2023-03-20T06:22:37.789Z,87.36
2023-03-20T06:23:37.793Z,87.22
2023-03-20T06:24:37.755Z,87.63
2023-03-20T06:25:38.078Z,87.01
2023-03-20T06:26:37.739Z,86.85
2023-03-20T06:27:37.771Z,87.05
2023-03-20T06:28:37.712Z,87.26
2023-03-20T06:29:37.723Z,87.52
2023-03-20T06:30:37.690Z,87.42
2023-03-20T06:31:37.742Z,86.91
2023-03-20T06:32:37.728Z,86.91
2023-03-20T06:33:37.692Z,86.60
2023-03-20T06:34:37.654Z,86.80
2023-03-20T06:35:38.157Z,86.80
2023-03-20T06:36:37.624Z,86.40
2023-03-20T06:37:37.645Z,86.60
2023-03-20T06:38:37.627Z,87.01
2023-03-20T06:39:37.620Z,87.32
2023-03-20T06:40:37.588Z,86.70
2023-03-20T06:41:37.593Z,86.50
2023-03-20T06:42:37.555Z,86.80
2023-03-20T06:43:37.572Z,86.40
2023-03-20T06:44:37.549Z,86.60
2023-03-20T06:45:37.901Z,87.01
2023-03-20T06:46:37.558Z,85.88
2023-03-20T06:47:37.527Z,85.98
2023-03-20T06:48:37.494Z,86.29
2023-03-20T06:49:37.519Z,85.57
2023-03-20T06:50:37.472Z,85.98
2023-03-20T06:51:37.486Z,86.40
2023-03-20T06:52:37.456Z,86.29
2023-03-20T06:53:37.469Z,85.78
2023-03-20T06:54:37.431Z,85.78
2023-03-20T06:55:37.782Z,85.78
2023-03-20T06:56:37.413Z,85.57
2023-03-20T06:57:37.427Z,85.47
2023-03-20T06:58:37.388Z,85.47
2023-03-20T06:59:37.742Z,85.47
2023-03-20T07:00:37.411Z,85.68
2023-03-20T07:01:37.470Z,85.88
2023-03-20T07:02:37.367Z,85.98
2023-03-20T07:03:37.378Z,85.78
2023-03-20T07:04:37.497Z,85.16
2023-03-20T07:05:37.624Z,85.47
2023-03-20T07:06:37.333Z,85.98
2023-03-20T07:07:37.328Z,85.88
2023-03-20T07:08:37.291Z,85.16
2023-03-20T07:09:37.313Z,85.26
2023-03-20T07:10:37.266Z,85.26
2023-03-20T07:11:37.293Z,85.57
2023-03-20T07:12:37.244Z,85.68
2023-03-20T07:13:37.268Z,85.47
2023-03-20T07:14:37.224Z,85.88
2023-03-20T07:15:37.559Z,85.47
2023-03-20T07:16:37.242Z,85.94
2023-03-20T07:17:37.235Z,85.63
2023-03-20T07:18:37.180Z,85.02
2023-03-20T07:19:38.187Z,85.43
2023-03-20T07:20:37.161Z,85.12
2023-03-20T07:21:37.180Z,85.02
2023-03-20T07:22:37.180Z,84.91
2023-03-20T07:23:37.175Z,85.94
2023-03-20T07:24:37.121Z,85.02
2023-03-20T07:25:42.926Z,84.71
2023-03-20T07:26:37.104Z,84.91
2023-03-20T07:27:37.109Z,84.61
2023-03-20T07:28:37.093Z,84.71
2023-03-20T07:29:37.108Z,84.50
2023-03-20T07:30:37.061Z,84.61
2023-03-20T07:31:37.115Z,84.91
2023-03-20T07:32:37.924Z,84.71
2023-03-20T07:33:37.069Z,84.50
2023-03-20T07:34:37.014Z,84.50
2023-03-20T07:35:37.415Z,84.05
2023-03-20T07:36:37.007Z,83.99
2023-03-20T07:37:37.035Z,83.99
2023-03-20T07:38:36.969Z,83.78
2023-03-20T07:39:36.993Z,83.78
2023-03-20T07:40:36.985Z,83.78
2023-03-20T07:41:36.958Z,84.09
2023-03-20T07:42:36.978Z,83.78
2023-03-20T07:43:36.936Z,84.16
2023-03-20T07:44:36.934Z,83.64
2023-03-20T07:45:37.201Z,83.54
2023-03-20T07:46:36.887Z,83.75
2023-03-20T07:47:36.968Z,83.50
2023-03-20T07:48:36.872Z,82.89
2023-03-20T07:49:36.869Z,83.19
2023-03-20T07:50:36.873Z,82.84
2023-03-20T07:51:36.845Z,81.82
2023-03-20T07:52:36.821Z,81.68
2023-03-20T07:53:36.838Z,81.78
2023-03-20T07:54:36.831Z,81.23
2023-03-20T07:55:37.260Z,79.90
2023-03-20T07:56:36.770Z,80.24
2023-03-20T07:57:36.781Z,79.83
2023-03-20T07:58:36.759Z,79.56
2023-03-20T07:59:36.761Z,80.58
2023-03-20T08:00:36.731Z,80.38
2023-03-20T08:01:36.841Z,80.49
2023-03-20T08:02:36.791Z,81.10
2023-03-20T08:03:36.818Z,80.07
2023-03-20T08:04:36.688Z,80.79
2023-03-20T08:05:36.946Z,80.32
2023-03-20T08:06:36.695Z,80.32
2023-03-20T08:07:36.676Z,81.04
2023-03-20T08:08:36.641Z,81.24
2023-03-20T08:09:36.675Z,81.24
2023-03-20T08:10:36.620Z,81.24
2023-03-20T08:11:36.642Z,81.41
2023-03-20T08:12:36.608Z,79.56
2023-03-20T08:13:36.616Z,79.73
2023-03-20T08:14:36.590Z,78.29
2023-03-20T08:15:36.823Z,79.93
2023-03-20T08:16:36.615Z,77.88
2023-03-20T08:17:36.603Z,77.03
2023-03-20T08:18:36.548Z,77.17
2023-03-20T08:19:36.657Z,78.19
2023-03-20T08:20:36.515Z,76.24
2023-03-20T08:21:36.588Z,76.96
2023-03-20T08:22:36.494Z,76.75
2023-03-20T08:23:36.528Z,76.62
2023-03-20T08:24:36.490Z,76.31
2023-03-20T08:25:36.722Z,76.31
2023-03-20T08:26:36.455Z,75.86
2023-03-20T08:27:36.467Z,74.90
2023-03-20T08:28:46.960Z,73.95
2023-03-20T08:29:36.450Z,72.52
2023-03-20T08:30:36.430Z,72.52
2023-03-20T08:31:36.422Z,74.56
2023-03-20T08:32:36.412Z,73.64
2023-03-20T08:33:36.406Z,71.59
2023-03-20T08:34:36.389Z,72.14
2023-03-20T08:35:36.395Z,72.78
2023-03-20T08:36:36.349Z,72.99
2023-03-20T08:37:36.366Z,72.99
2023-03-20T08:38:36.341Z,73.30
2023-03-20T08:39:36.351Z,73.13
2023-03-20T08:40:36.304Z,73.54
2023-03-20T08:41:36.313Z,73.54
2023-03-20T08:42:36.287Z,73.10
2023-03-20T08:43:36.298Z,73.40
2023-03-20T08:44:36.261Z,73.57
2023-03-20T08:45:36.587Z,72.03
2023-03-20T08:46:36.330Z,71.42
2023-03-20T08:47:36.245Z,72.68
2023-03-20T08:48:36.240Z,72.07
2023-03-20T08:49:36.240Z,72.48
2023-03-20T08:50:36.222Z,72.75
2023-03-20T08:51:36.230Z,72.55
2023-03-20T08:52:36.166Z,71.62
2023-03-20T08:53:36.187Z,72.38
2023-03-20T08:54:36.160Z,72.75
2023-03-20T08:55:36.493Z,71.76
2023-03-20T08:56:36.136Z,71.56
2023-03-20T08:57:36.141Z,71.45
2023-03-20T08:58:36.106Z,71.15
2023-03-20T08:59:36.161Z,71.11
2023-03-20T09:00:36.088Z,73.06
2023-03-20T09:01:48.660Z,71.11
2023-03-20T09:02:36.249Z,70.19
2023-03-20T09:03:36.079Z,69.68
2023-03-20T09:04:36.051Z,69.37
2023-03-20T09:05:36.347Z,70.81
2023-03-20T09:06:36.036Z,70.02
2023-03-20T09:07:36.090Z,71.22
2023-03-20T09:08:35.995Z,70.40
2023-03-20T09:09:36.006Z,70.09
2023-03-20T09:10:35.986Z,69.98
2023-03-20T09:11:35.989Z,69.57
2023-03-20T09:12:36.021Z,69.57
2023-03-20T09:13:35.973Z,68.96
2023-03-20T09:14:35.928Z,69.27
2023-03-20T09:15:36.397Z,69.37
2023-03-20T09:16:35.941Z,70.29
2023-03-20T09:17:35.921Z,69.37
2023-03-20T09:18:35.900Z,69.89
2023-03-20T09:19:35.897Z,69.89
2023-03-20T09:20:36.126Z,70.40
2023-03-20T09:21:35.888Z,69.81
2023-03-20T09:22:35.847Z,69.81
2023-03-20T09:23:35.919Z,69.61
2023-03-20T09:24:35.820Z,71.04
2023-03-20T09:25:36.140Z,71.45
2023-03-20T09:26:35.798Z,70.73
2023-03-20T09:27:35.817Z,70.12
2023-03-20T09:28:35.780Z,70.64
2023-03-20T09:29:35.863Z,71.04
2023-03-20T09:30:36.025Z,71.01
2023-03-20T09:31:35.844Z,69.92
2023-03-20T09:32:35.826Z,70.02
2023-03-20T09:33:35.750Z,70.22
2023-03-20T09:34:35.748Z,71.76
2023-03-20T09:35:35.745Z,69.68
2023-03-20T09:36:35.692Z,69.98
2023-03-20T09:37:35.711Z,70.06
2023-03-20T09:38:35.668Z,69.34
2023-03-20T09:39:35.688Z,70.16
2023-03-20T09:40:35.947Z,69.37
2023-03-20T09:41:45.576Z,69.27
2023-03-20T09:42:35.636Z,69.44
2023-03-20T09:43:35.644Z,68.62
2023-03-20T09:44:35.622Z,68.41
2023-03-20T09:45:35.651Z,67.90
2023-03-20T09:46:35.630Z,68.73
2023-03-20T09:47:35.573Z,68.11
2023-03-20T09:48:35.596Z,67.90
2023-03-20T09:49:35.554Z,68.38
2023-03-20T09:50:35.771Z,67.87
2023-03-20T09:51:35.548Z,68.01
2023-03-20T09:52:35.556Z,68.52
2023-03-20T09:53:35.511Z,68.52
2023-03-20T09:54:47.302Z,68.01
2023-03-20T09:55:35.931Z,69.44
2023-03-20T09:56:35.536Z,67.90
2023-03-20T09:57:35.474Z,68.21
2023-03-20T09:58:35.478Z,68.83
2023-03-20T09:59:35.444Z,68.41
2023-03-20T10:00:35.822Z,69.13
2023-03-20T10:01:37.152Z,67.90
2023-03-20T10:02:36.007Z,67.70
2023-03-20T10:03:35.396Z,68.24
2023-03-20T10:04:35.461Z,68.83
2023-03-20T10:05:35.614Z,68.62
2023-03-20T10:06:35.397Z,68.52
2023-03-20T10:07:35.379Z,68.52
2023-03-20T10:08:35.368Z,68.11
2023-03-20T10:09:35.345Z,69.51
2023-03-20T10:10:35.683Z,66.75
2023-03-20T10:11:35.313Z,67.49
2023-03-20T10:12:35.324Z,67.87
2023-03-20T10:13:35.308Z,67.33
2023-03-20T10:14:35.316Z,67.02
2023-03-20T10:15:35.268Z,66.51
2023-03-20T10:16:35.336Z,66.61
2023-03-20T10:17:35.251Z,67.94
2023-03-20T10:18:35.290Z,67.33
2023-03-20T10:19:35.225Z,66.69
2023-03-20T10:20:35.765Z,65.28
2023-03-20T10:21:35.203Z,65.69
2023-03-20T10:22:35.219Z,65.83
2023-03-20T10:23:35.186Z,65.31
2023-03-20T10:24:35.205Z,66.34
2023-03-20T10:25:35.195Z,65.90
2023-03-20T10:26:35.195Z,66.61
2023-03-20T10:27:35.153Z,66.10
2023-03-20T10:28:35.154Z,66.41
2023-03-20T10:29:35.149Z,64.87
2023-03-20T10:30:35.491Z,65.11
2023-03-20T10:31:35.151Z,65.42
2023-03-20T10:32:35.223Z,65.21
2023-03-20T10:33:35.076Z,65.34
2023-03-20T10:34:35.096Z,65.75
2023-03-20T10:35:35.096Z,66.13
2023-03-20T10:36:35.066Z,65.83
2023-03-20T10:37:35.031Z,65.42
2023-03-20T10:38:35.046Z,65.21
2023-03-20T10:39:35.011Z,64.39
2023-03-20T10:40:35.367Z,65.52
2023-03-20T10:41:34.988Z,64.80
2023-03-20T10:42:35.021Z,66.34
2023-03-20T10:43:38.188Z,65.42
2023-03-20T10:44:34.981Z,65.11
2023-03-20T10:45:34.956Z,65.52
2023-03-20T10:46:35.001Z,65.01
2023-03-20T10:47:34.950Z,65.42
2023-03-20T10:48:34.953Z,64.60
2023-03-20T10:49:34.902Z,64.70
2023-03-20T10:50:35.158Z,65.04
2023-03-20T10:51:34.921Z,65.24
2023-03-20T10:52:34.899Z,65.21
2023-03-20T10:53:34.866Z,65.55
2023-03-20T10:54:34.872Z,66.75
2023-03-20T10:55:34.876Z,67.64
2023-03-20T10:56:34.848Z,65.39
2023-03-20T10:57:34.823Z,64.95
2023-03-20T10:58:34.830Z,66.07
2023-03-20T10:59:34.788Z,65.66
2023-03-20T11:00:35.193Z,64.23
2023-03-20T11:01:35.921Z,63.31
2023-03-20T11:02:34.808Z,66.07
2023-03-20T11:03:34.751Z,64.26
2023-03-20T11:04:34.839Z,64.06
2023-03-20T11:05:34.756Z,63.92
2023-03-20T11:06:34.743Z,64.33
2023-03-20T11:07:34.715Z,64.43
2023-03-20T11:08:34.737Z,63.82
2023-03-20T11:09:34.690Z,64.13
2023-03-20T11:10:35.037Z,63.31
2023-03-20T11:11:34.679Z,64.23
2023-03-20T11:12:34.683Z,63.41
2023-03-20T11:13:34.661Z,63.00
2023-03-20T11:14:34.660Z,64.51
2023-03-20T11:15:34.626Z,62.57
2023-03-20T11:16:34.681Z,61.75
2023-03-20T11:17:34.606Z,61.65
2023-03-20T11:18:34.617Z,61.98
2023-03-20T11:19:34.596Z,61.50
2023-03-20T11:20:34.971Z,62.62
2023-03-20T11:21:34.579Z,64.33
2023-03-20T11:22:34.574Z,62.49
2023-03-20T11:23:34.546Z,62.62
2023-03-20T11:24:34.579Z,62.65
2023-03-20T11:25:34.535Z,63.37
2023-03-20T11:26:34.541Z,64.29
2023-03-20T11:27:34.515Z,62.65
2023-03-20T11:28:34.530Z,63.37
2023-03-20T11:29:34.494Z,62.65
2023-03-20T11:30:34.806Z,62.35
2023-03-20T11:31:34.539Z,62.45
2023-03-20T11:32:34.569Z,62.24
2023-03-20T11:33:34.430Z,62.76
2023-03-20T11:34:34.455Z,62.52
2023-03-20T11:35:34.449Z,62.11
2023-03-20T11:36:34.424Z,61.60
2023-03-20T11:37:34.388Z,62.62
2023-03-20T11:38:34.400Z,62.21
2023-03-20T11:39:34.364Z,61.57
2023-03-20T11:40:34.807Z,62.29
2023-03-20T11:41:34.350Z,62.87
2023-03-20T11:42:34.352Z,61.00
2023-03-20T11:43:34.324Z,59.80
2023-03-20T11:44:34.332Z,60.72
2023-03-20T11:45:34.376Z,60.83
2023-03-20T11:46:34.348Z,62.02
2023-03-20T11:47:34.278Z,62.40
2023-03-20T11:48:34.302Z,59.23
2023-03-20T11:49:34.253Z,59.62
2023-03-20T11:50:34.521Z,59.31
2023-03-20T11:51:34.230Z,60.26
2023-03-20T11:52:34.268Z,59.75
2023-03-20T11:53:34.213Z,60.16
2023-03-20T11:54:34.218Z,60.16
2023-03-20T11:55:34.190Z,59.64
2023-03-20T11:56:34.209Z,60.49
2023-03-20T11:57:34.212Z,61.38
2023-03-20T11:58:34.179Z,60.67
2023-03-20T11:59:34.168Z,59.67
2023-03-20T12:00:34.421Z,59.80
2023-03-20T12:01:34.167Z,60.62
2023-03-20T12:02:34.167Z,61.51
2023-03-20T12:03:34.333Z,60.80
2023-03-20T12:04:34.119Z,60.28
2023-03-20T12:05:34.101Z,60.49
2023-03-20T12:06:34.096Z,60.49
2023-03-20T12:07:34.080Z,60.52
2023-03-20T12:08:34.105Z,60.93
2023-03-20T12:09:34.043Z,61.03
2023-03-20T12:10:34.404Z,60.83
2023-03-20T12:11:34.022Z,61.13
2023-03-20T12:12:34.042Z,60.39
2023-03-20T12:13:34.004Z,59.78
2023-03-20T12:14:34.020Z,62.43
2023-03-20T12:15:34.023Z,59.98
2023-03-20T12:16:34.012Z,60.28
2023-03-20T12:17:33.956Z,58.86
2023-03-20T12:18:33.966Z,58.65
2023-03-20T12:19:33.946Z,60.26
2023-03-20T12:20:34.154Z,59.44
2023-03-20T12:21:33.927Z,58.80
2023-03-20T12:22:33.923Z,59.23
2023-03-20T12:23:33.893Z,59.44
2023-03-20T12:24:33.907Z,58.11
2023-03-20T12:25:33.897Z,58.91
2023-03-20T12:26:33.886Z,58.62
2023-03-20T12:27:34.858Z,57.63
2023-03-20T12:28:33.861Z,59.06
2023-03-20T12:29:33.827Z,58.58
2023-03-20T12:30:34.144Z,60.19
2023-03-20T12:31:33.935Z,59.57
2023-03-20T12:32:33.855Z,59.88
2023-03-20T12:33:33.782Z,59.19
2023-03-20T12:34:33.805Z,59.39
2023-03-20T12:35:33.790Z,59.53
2023-03-20T12:36:33.815Z,60.01
2023-03-20T12:37:33.753Z,59.19
2023-03-20T12:38:33.765Z,59.09
2023-03-20T12:39:33.722Z,58.27
2023-03-20T12:40:34.028Z,59.30
2023-03-20T12:41:33.733Z,59.70
2023-03-20T12:42:33.707Z,60.83
2023-03-20T12:43:33.674Z,59.19
2023-03-20T12:44:33.684Z,58.48
2023-03-20T12:45:33.666Z,58.78
2023-03-20T12:46:33.738Z,58.98
2023-03-20T12:47:33.652Z,59.01
2023-03-20T12:48:33.645Z,59.01
2023-03-20T12:49:33.612Z,59.04
2023-03-20T12:50:33.951Z,59.86
2023-03-20T12:51:33.591Z,60.24
2023-03-20T12:52:33.599Z,58.91